Alton, Indiana
Current Conditions -  °F | °C
As of 6:58 AM on Friday 31 Oct 2014 (Local Time) from KFTK Reporting Station
Light Rain Light Rain  
Wind Chill: 42°   Ceiling: 2700
Heat Index: 45°   Visibility: 8mi
Dew Point: 42°   Wind: 6mph
Humidity: 90%   Direction: 310°NW
Pressure: 29.99"   Gusts: NA
Location:  38.1914°N, 86.3619°W
Report Text: KFTK 311058Z AUTO 31005KT 8SM R18/5500FT -RA BKN027 OVC049 07/06 A2999 RMK AO2 RAB1044DZE1044 SLP160 P0000 T00720057
Loading
Personal Weather Stations






























Interactive Weather Map
Tropical Storm Tracking
New forecast layout! Learn more

10-Day Weather Forecast

Advertisements
Track Severe Weather on mobile